createdAt,value
2022-12-18T00:03:59.701Z,16.30
2022-12-18T00:09:03.395Z,18.43
2022-12-18T00:14:07.495Z,13.67
2022-12-18T00:19:12.287Z,18.47
2022-12-18T00:24:15.073Z,17.97
2022-12-18T00:29:19.163Z,19.43
2022-12-18T00:34:21.835Z,14.33
2022-12-18T00:39:24.705Z,18.07
2022-12-18T00:44:28.848Z,19.57
2022-12-18T00:49:31.546Z,17.33
2022-12-18T00:54:34.401Z,15.53
2022-12-18T00:59:38.540Z,13.73
2022-12-18T01:04:41.302Z,19.07
2022-12-18T01:09:44.215Z,17.63
2022-12-18T01:14:48.386Z,15.57
2022-12-18T01:19:51.277Z,16.63
2022-12-18T01:24:54.123Z,12.43
2022-12-18T01:30:00.161Z,14.80
2022-12-18T01:35:02.907Z,14.80
2022-12-18T01:40:06.759Z,15.50
2022-12-18T01:45:27.016Z,12.37
2022-12-18T01:50:33.209Z,14.60
2022-12-18T01:55:39.369Z,17.20
2022-12-18T02:00:43.872Z,16.07
2022-12-18T02:05:51.117Z,12.77
2022-12-18T02:11:00.333Z,18.30
2022-12-18T02:16:09.760Z,17.83
2022-12-18T02:21:19.488Z,17.73
2022-12-18T02:26:28.911Z,12.60
2022-12-18T02:31:35.875Z,16.17
2022-12-18T02:36:40.478Z,13.43
2022-12-18T02:41:44.988Z,12.97
2022-12-18T02:46:51.324Z,12.70
2022-12-18T02:51:56.591Z,13.40
2022-12-18T02:57:09.666Z,13.23
2022-12-18T03:02:21.863Z,12.53
2022-12-18T03:07:30.848Z,13.70
2022-12-18T03:12:38.273Z,15.83
2022-12-18T03:17:42.980Z,13.53
2022-12-18T03:22:48.330Z,11.00
2022-12-18T03:27:56.387Z,13.17
2022-12-18T03:33:04.989Z,14.67
2022-12-18T03:38:08.231Z,14.67
2022-12-18T03:43:21.001Z,15.50
2022-12-18T03:48:30.777Z,14.57
2022-12-18T03:53:41.138Z,15.00
2022-12-18T03:58:45.919Z,15.27
2022-12-18T04:04:02.587Z,15.67
2022-12-18T04:09:09.737Z,11.93
2022-12-18T04:14:18.423Z,12.00
2022-12-18T04:19:24.717Z,13.20
2022-12-18T04:24:29.243Z,11.13
2022-12-18T04:29:45.788Z,14.23
2022-12-18T04:34:48.663Z,13.97
2022-12-18T04:39:51.844Z,13.33
2022-12-18T04:45:07.477Z,13.50
2022-12-18T04:50:10.307Z,9.93
2022-12-18T04:55:13.066Z,11.80
2022-12-18T05:00:17.815Z,10.80
2022-12-18T05:05:20.588Z,9.33
2022-12-18T05:10:23.267Z,12.90
2022-12-18T05:15:29.263Z,10.87
2022-12-18T05:20:32.842Z,10.97
2022-12-18T05:25:35.650Z,10.57
2022-12-18T05:30:39.677Z,10.50
2022-12-18T05:35:42.382Z,12.00
2022-12-18T05:40:45.142Z,11.70
2022-12-18T05:45:49.839Z,8.67
2022-12-18T05:50:53.084Z,10.47
2022-12-18T05:55:55.747Z,9.67
2022-12-18T06:01:00.199Z,10.37
2022-12-18T06:06:02.916Z,10.77
2022-12-18T06:11:05.778Z,10.17
2022-12-18T06:16:10.284Z,12.63
2022-12-18T06:21:13.080Z,9.33
2022-12-18T06:26:16.201Z,10.40
2022-12-18T06:31:20.308Z,10.23
2022-12-18T06:36:23.123Z,9.77
2022-12-18T06:41:26.008Z,9.00
2022-12-18T06:46:30.095Z,8.93
2022-12-18T06:51:32.974Z,9.63
2022-12-18T06:56:35.820Z,10.10
2022-12-18T07:01:39.962Z,8.23
2022-12-18T07:06:42.736Z,14.80
2022-12-18T07:11:45.435Z,10.67
2022-12-18T07:16:49.552Z,12.47
2022-12-18T07:21:52.482Z,21.07
2022-12-18T07:26:55.174Z,13.80
2022-12-18T07:31:59.275Z,12.20
2022-12-18T07:37:02.114Z,10.57
2022-12-18T07:42:27.804Z,10.63
2022-12-18T07:47:32.072Z,10.70
2022-12-18T07:52:34.827Z,13.10
2022-12-18T07:57:57.637Z,11.47
2022-12-18T08:03:01.978Z,11.90
2022-12-18T08:08:04.796Z,12.93
2022-12-18T08:13:07.644Z,17.17
2022-12-18T08:18:14.424Z,14.77
2022-12-18T08:23:17.423Z,12.53
2022-12-18T08:28:20.097Z,15.13
2022-12-18T08:33:24.449Z,14.60
2022-12-18T08:38:27.246Z,16.17
2022-12-18T08:43:47.657Z,12.33
2022-12-18T08:48:52.925Z,15.70
2022-12-18T08:53:55.598Z,10.90
2022-12-18T08:58:58.611Z,7.77
2022-12-18T09:04:02.915Z,6.10
2022-12-18T09:09:06.657Z,8.10
2022-12-18T09:14:10.370Z,8.13
2022-12-18T09:19:14.481Z,8.80
2022-12-18T09:24:17.602Z,7.23
2022-12-18T09:29:20.347Z,7.23
2022-12-18T09:34:24.431Z,12.57
2022-12-18T09:39:27.155Z,8.13
2022-12-18T09:44:31.863Z,10.13
2022-12-18T09:49:41.138Z,6.03
2022-12-18T09:54:49.542Z,5.20
2022-12-18T09:59:55.341Z,6.30
2022-12-18T10:05:06.332Z,7.60
2022-12-18T10:10:14.414Z,5.77
2022-12-18T10:15:22.021Z,8.40
2022-12-18T10:20:30.764Z,8.20
2022-12-18T10:25:39.245Z,5.40
2022-12-18T10:30:42.871Z,7.77
2022-12-18T10:35:47.330Z,4.63
2022-12-18T10:40:52.296Z,4.80
2022-12-18T10:46:07.715Z,6.97
2022-12-18T10:51:13.025Z,8.10
2022-12-18T10:56:22.265Z,7.90
2022-12-18T11:01:25.076Z,9.10
2022-12-18T11:06:29.338Z,7.37
2022-12-18T11:11:33.505Z,8.03
2022-12-18T11:17:03.084Z,9.30
2022-12-18T11:22:22.647Z,9.30
2022-12-18T11:27:25.460Z,8.00
2022-12-18T11:32:36.935Z,7.63
2022-12-18T11:37:41.851Z,11.50
2022-12-18T11:42:48.613Z,9.17
2022-12-18T11:47:56.468Z,8.53
2022-12-18T11:53:05.645Z,9.40
2022-12-18T11:58:14.693Z,10.33
2022-12-18T12:03:29.946Z,10.63
2022-12-18T12:08:42.611Z,12.27
2022-12-18T12:14:03.296Z,10.00
2022-12-18T12:19:17.899Z,11.33
2022-12-18T12:24:32.131Z,14.00
2022-12-18T12:29:43.301Z,10.53
2022-12-18T12:35:00.249Z,11.77
2022-12-18T12:40:40.896Z,11.93
2022-12-18T12:45:35.280Z,13.20
2022-12-18T12:50:39.735Z,10.97
2022-12-18T12:55:44.572Z,13.60
2022-12-18T13:00:51.969Z,12.07
2022-12-18T13:05:57.356Z,14.10
2022-12-18T13:11:16.661Z,12.67
2022-12-18T13:16:21.752Z,16.60
2022-12-18T13:21:28.139Z,14.70
2022-12-18T13:26:34.329Z,13.07
2022-12-18T13:32:10.088Z,15.43
2022-12-18T13:37:43.930Z,18.90
2022-12-18T13:43:05.643Z,23.70
2022-12-18T13:48:21.842Z,17.03
2022-12-18T13:53:28.481Z,16.27
2022-12-18T13:58:33.057Z,17.13
2022-12-18T14:03:36.076Z,15.27
2022-12-18T14:08:41.809Z,15.73
2022-12-18T14:13:46.393Z,17.83
2022-12-18T14:18:55.387Z,15.63
2022-12-18T14:24:16.661Z,19.00
2022-12-18T14:29:28.908Z,17.47
2022-12-18T14:34:31.696Z,14.97
2022-12-18T14:39:34.458Z,17.40
2022-12-18T14:44:50.787Z,16.93
2022-12-18T14:50:01.890Z,17.80
2022-12-18T14:55:04.971Z,21.03
2022-12-18T15:00:18.210Z,23.53
2022-12-18T15:05:28.404Z,18.83
2022-12-18T15:10:32.780Z,16.97
2022-12-18T15:15:50.522Z,16.77
2022-12-18T15:20:55.985Z,19.47
2022-12-18T15:26:00.348Z,18.17
2022-12-18T15:31:07.219Z,15.70
2022-12-18T15:36:12.985Z,16.03
2022-12-18T15:41:24.360Z,15.10
2022-12-18T15:46:29.061Z,16.13
2022-12-18T15:51:34.926Z,13.93
2022-12-18T15:57:09.851Z,20.80
2022-12-18T16:02:19.162Z,16.53
2022-12-18T16:07:25.616Z,15.47
2022-12-18T16:12:28.948Z,14.53
2022-12-18T16:17:33.113Z,14.53
2022-12-18T16:22:36.020Z,16.80
2022-12-18T16:27:38.748Z,16.63
2022-12-18T16:32:43.124Z,12.93
2022-12-18T16:37:45.886Z,15.63
2022-12-18T16:42:48.671Z,14.93
2022-12-18T16:47:52.732Z,10.97
2022-12-18T16:52:55.635Z,14.33
2022-12-18T16:57:58.702Z,11.97
2022-12-18T17:03:03.116Z,15.83
2022-12-18T17:08:06.409Z,15.43
2022-12-18T17:13:09.201Z,17.77
2022-12-18T17:18:13.295Z,17.03
2022-12-18T17:23:16.027Z,17.27
2022-12-18T17:28:18.750Z,17.10
2022-12-18T17:33:23.107Z,15.03
2022-12-18T17:38:25.783Z,11.30
2022-12-18T17:43:28.499Z,11.77
2022-12-18T17:48:33.279Z,13.53
2022-12-18T17:53:36.545Z,12.10
2022-12-18T17:58:39.489Z,12.37
2022-12-18T18:03:44.567Z,10.43
2022-12-18T18:08:47.678Z,12.43
2022-12-18T18:14:02.515Z,11.70
2022-12-18T18:19:08.133Z,14.83
2022-12-18T18:24:12.700Z,13.43
2022-12-18T18:29:16.886Z,8.80
2022-12-18T18:34:23.548Z,10.37
2022-12-18T18:39:26.798Z,16.97
2022-12-18T18:44:30.063Z,19.57
2022-12-18T18:49:34.227Z,15.63
2022-12-18T18:54:37.066Z,12.23
2022-12-18T18:59:39.790Z,11.20
2022-12-18T19:04:46.205Z,12.80
2022-12-18T19:09:52.062Z,13.60
2022-12-18T19:14:55.292Z,10.43
2022-12-18T19:19:59.403Z,11.33
2022-12-18T19:25:02.444Z,13.03
2022-12-18T19:30:05.839Z,13.37
2022-12-18T19:35:11.163Z,16.93
2022-12-18T19:40:14.428Z,16.73
2022-12-18T19:45:17.973Z,16.00
2022-12-18T19:50:22.192Z,15.70
2022-12-18T19:55:25.093Z,19.97
2022-12-18T20:00:28.043Z,22.70
2022-12-18T20:05:32.184Z,14.03
2022-12-18T20:10:35.115Z,13.97
2022-12-18T20:15:41.894Z,12.23
2022-12-18T20:20:49.313Z,12.00
2022-12-18T20:25:54.021Z,12.60
2022-12-18T20:31:01.257Z,13.77
2022-12-18T20:36:07.854Z,9.50
2022-12-18T20:41:12.791Z,12.57
2022-12-18T20:46:17.784Z,13.40
2022-12-18T20:51:22.962Z,14.77
2022-12-18T20:56:26.734Z,13.63
2022-12-18T21:01:30.746Z,15.10
2022-12-18T21:06:34.946Z,11.53
2022-12-18T21:11:55.639Z,9.73
2022-12-18T21:17:00.728Z,10.77
2022-12-18T21:22:05.210Z,11.07
2022-12-18T21:27:08.374Z,11.70
2022-12-18T21:32:13.976Z,11.20
2022-12-18T21:37:18.021Z,11.43
2022-12-18T21:42:38.245Z,9.50
2022-12-18T21:47:40.908Z,12.93
2022-12-18T21:52:45.023Z,16.83
2022-12-18T21:57:47.753Z,12.30
2022-12-18T22:02:59.958Z,15.10
2022-12-18T22:08:21.342Z,11.97
2022-12-18T22:13:28.425Z,15.60
2022-12-18T22:18:31.460Z,14.50
2022-12-18T22:23:36.123Z,17.60
2022-12-18T22:28:56.432Z,14.13
2022-12-18T22:33:59.134Z,18.50
2022-12-18T22:39:03.517Z,16.43
2022-12-18T22:44:06.452Z,14.33
2022-12-18T22:49:13.993Z,12.13
2022-12-18T22:54:18.490Z,15.50
2022-12-18T22:59:23.165Z,15.83
2022-12-18T23:04:28.491Z,12.67
2022-12-18T23:09:40.467Z,12.93
2022-12-18T23:14:43.376Z,12.70
2022-12-18T23:19:49.182Z,12.73
2022-12-18T23:24:53.668Z,15.97
2022-12-18T23:29:56.436Z,14.50
2022-12-18T23:35:01.499Z,12.97
2022-12-18T23:40:06.654Z,14.77
2022-12-18T23:45:18.162Z,13.90
2022-12-18T23:50:28.675Z,14.10
2022-12-18T23:55:34.963Z,19.00
